Terminal Aerodrome Forecast
Issued by NWS Topeka, KS

Home | Current Version | Previous Version | Graphics & Text | Print | Product List | Glossary On
Versions: 1 2 3 4 5 6 7 8 9 10 11 12 13
000
FTUS43 KTOP 302323
TAFTOP
TAF
KTOP 302323Z 0100/0124 11008KT 5SM HZ BKN100
     FM010500 12008KT 6SM BR VCTS BKN080CB
     FM011100 10006KT P6SM BKN080=

USA.gov is the U.S. government's official web portal to all federal, state and local government web resources and services.